sensor_id;sensor_type;location;lat;lon;timestamp;pressure;altitude;pressure_sealevel;temperature;humidity
34658;BME280;20865;43.312;27.152;2023-06-14T19:13:05;100233.54;;;29.40;40.96
34658;BME280;20865;43.312;27.152;2023-06-14T19:15:34;100229.90;;;29.36;41.04
34658;BME280;20865;43.312;27.152;2023-06-14T19:18:02;100242.64;;;29.33;40.94
34658;BME280;20865;43.312;27.152;2023-06-14T19:20:32;100245.88;;;29.28;41.00
34658;BME280;20865;43.312;27.152;2023-06-14T19:23:00;100252.42;;;29.27;41.00
34658;BME280;20865;43.312;27.152;2023-06-14T19:25:29;100255.30;;;29.13;41.22
34658;BME280;20865;43.312;27.152;2023-06-14T19:27:59;100266.16;;;29.19;41.28
34658;BME280;20865;43.312;27.152;2023-06-14T19:30:28;100268.72;;;29.16;41.14
34658;BME280;20865;43.312;27.152;2023-06-14T19:32:55;100268.88;;;29.15;41.12
34658;BME280;20865;43.312;27.152;2023-06-14T19:35:23;100275.73;;;29.11;41.08
34658;BME280;20865;43.312;27.152;2023-06-14T19:37:51;100278.66;;;29.05;41.11
34658;BME280;20865;43.312;27.152;2023-06-14T19:40:19;100282.21;;;28.98;41.13
34658;BME280;20865;43.312;27.152;2023-06-14T19:42:47;100286.98;;;28.91;41.17
34658;BME280;20865;43.312;27.152;2023-06-14T19:45:14;100280.77;;;28.85;41.33
34658;BME280;20865;43.312;27.152;2023-06-14T19:47:42;100280.43;;;28.84;41.40
34658;BME280;20865;43.312;27.152;2023-06-14T19:50:10;100285.72;;;28.78;41.63
34658;BME280;20865;43.312;27.152;2023-06-14T19:52:38;100292.52;;;28.69;41.85
34658;BME280;20865;43.312;27.152;2023-06-14T19:55:06;100288.24;;;28.67;41.83
34658;BME280;20865;43.312;27.152;2023-06-14T19:57:34;100285.63;;;28.61;42.02
34658;BME280;20865;43.312;27.152;2023-06-14T20:00:02;100283.20;;;28.58;41.99
34658;BME280;20865;43.312;27.152;2023-06-14T20:02:30;100289.87;;;28.56;42.05
34658;BME280;20865;43.312;27.152;2023-06-14T20:04:58;100290.91;;;28.55;42.19
34658;BME280;20865;43.312;27.152;2023-06-14T20:07:26;100289.19;;;28.54;42.28
34658;BME280;20865;43.312;27.152;2023-06-14T20:09:53;100298.11;;;28.56;42.12
34658;BME280;20865;43.312;27.152;2023-06-14T20:12:24;100291.42;;;28.54;42.12
34658;BME280;20865;43.312;27.152;2023-06-14T20:14:59;100290.17;;;28.48;42.18
34658;BME280;20865;43.312;27.152;2023-06-14T20:17:23;100289.47;;;28.42;42.39
34658;BME280;20865;43.312;27.152;2023-06-14T20:19:50;100282.09;;;28.43;42.30
34658;BME280;20865;43.312;27.152;2023-06-14T20:22:19;100283.95;;;28.38;42.31
34658;BME280;20865;43.312;27.152;2023-06-14T20:24:46;100297.77;;;28.33;42.46
34658;BME280;20865;43.312;27.152;2023-06-14T20:27:14;100285.85;;;28.24;42.45
34658;BME280;20865;43.312;27.152;2023-06-14T20:29:41;100288.41;;;28.17;42.53
34658;BME280;20865;43.312;27.152;2023-06-14T20:32:09;100289.58;;;28.15;42.62
34658;BME280;20865;43.312;27.152;2023-06-14T20:34:37;100289.72;;;28.13;42.71
34658;BME280;20865;43.312;27.152;2023-06-14T20:37:05;100297.42;;;28.10;42.80
34658;BME280;20865;43.312;27.152;2023-06-14T20:39:32;100296.36;;;28.07;42.46
34658;BME280;20865;43.312;27.152;2023-06-14T20:42:00;100301.11;;;27.96;42.68
34658;BME280;20865;43.312;27.152;2023-06-14T20:44:28;100303.65;;;27.94;42.62
34658;BME280;20865;43.312;27.152;2023-06-14T20:46:56;100307.05;;;27.92;42.64
34658;BME280;20865;43.312;27.152;2023-06-14T20:49:24;100304.59;;;27.85;42.83
34658;BME280;20865;43.312;27.152;2023-06-14T20:51:55;100306.17;;;27.73;42.93
34658;BME280;20865;43.312;27.152;2023-06-14T20:54:22;100302.16;;;27.68;42.94
34658;BME280;20865;43.312;27.152;2023-06-14T20:56:50;100304.25;;;27.70;42.92
34658;BME280;20865;43.312;27.152;2023-06-14T20:59:18;100304.87;;;27.64;43.09
34658;BME280;20865;43.312;27.152;2023-06-14T21:01:45;100299.14;;;27.57;43.37
34658;BME280;20865;43.312;27.152;2023-06-14T21:04:14;100305.45;;;27.53;43.48
34658;BME280;20865;43.312;27.152;2023-06-14T21:06:42;100309.87;;;27.50;43.59
34658;BME280;20865;43.312;27.152;2023-06-14T21:09:10;100311.55;;;27.47;43.67
34658;BME280;20865;43.312;27.152;2023-06-14T21:11:37;100301.59;;;27.46;43.78
34658;BME280;20865;43.312;27.152;2023-06-14T21:14:05;100302.67;;;27.49;43.75
34658;BME280;20865;43.312;27.152;2023-06-14T21:16:33;100305.41;;;27.49;43.64
34658;BME280;20865;43.312;27.152;2023-06-14T21:19:01;100305.72;;;27.46;43.75
34658;BME280;20865;43.312;27.152;2023-06-14T21:21:29;100305.50;;;27.44;43.83
34658;BME280;20865;43.312;27.152;2023-06-14T21:23:56;100295.31;;;27.36;43.98
34658;BME280;20865;43.312;27.152;2023-06-14T21:26:24;100293.30;;;27.38;43.82
34658;BME280;20865;43.312;27.152;2023-06-14T21:28:53;100294.97;;;27.35;43.99
34658;BME280;20865;43.312;27.152;2023-06-14T21:31:21;100289.02;;;27.40;43.82
34658;BME280;20865;43.312;27.152;2023-06-14T21:33:48;100284.72;;;27.37;43.73
34658;BME280;20865;43.312;27.152;2023-06-14T21:36:16;100288.08;;;27.31;43.44
34658;BME280;20865;43.312;27.152;2023-06-14T21:38:43;100288.17;;;27.25;43.49
34658;BME280;20865;43.312;27.152;2023-06-14T21:41:11;100287.58;;;27.18;43.64
34658;BME280;20865;43.312;27.152;2023-06-14T21:43:39;100287.62;;;27.22;43.48
34658;BME280;20865;43.312;27.152;2023-06-14T21:46:07;100276.95;;;27.19;43.59
34658;BME280;20865;43.312;27.152;2023-06-14T21:48:34;100279.05;;;27.21;43.73
34658;BME280;20865;43.312;27.152;2023-06-14T21:51:02;100282.09;;;27.18;43.72
34658;BME280;20865;43.312;27.152;2023-06-14T21:53:30;100277.98;;;27.18;43.63
34658;BME280;20865;43.312;27.152;2023-06-14T21:56:00;100275.21;;;27.04;43.88
34658;BME280;20865;43.312;27.152;2023-06-14T21:58:28;100275.21;;;27.04;43.88
34658;BME280;20865;43.312;27.152;2023-06-14T22:00:55;100275.38;;;27.02;43.83
34658;BME280;20865;43.312;27.152;2023-06-14T22:03:23;100278.81;;;27.04;43.63
34658;BME280;20865;43.312;27.152;2023-06-14T22:05:51;100284.25;;;27.00;43.66
34658;BME280;20865;43.312;27.152;2023-06-14T22:08:18;100286.13;;;27.00;43.74
34658;BME280;20865;43.312;27.152;2023-06-14T22:10:47;100275.00;;;26.88;43.80
34658;BME280;20865;43.312;27.152;2023-06-14T22:13:15;100282.71;;;26.88;43.70
34658;BME280;20865;43.312;27.152;2023-06-14T22:15:44;100282.52;;;26.72;43.90
34658;BME280;20865;43.312;27.152;2023-06-14T22:18:13;100280.55;;;26.78;43.93
34658;BME280;20865;43.312;27.152;2023-06-14T22:20:42;100284.50;;;26.79;43.90
34658;BME280;20865;43.312;27.152;2023-06-14T22:23:11;100275.38;;;26.75;43.64
34658;BME280;20865;43.312;27.152;2023-06-14T22:25:40;100280.64;;;26.72;43.69
34658;BME280;20865;43.312;27.152;2023-06-14T22:28:08;100288.37;;;26.63;43.90
34658;BME280;20865;43.312;27.152;2023-06-14T22:30:35;100284.13;;;26.65;43.87
34658;BME280;20865;43.312;27.152;2023-06-14T22:33:03;100285.08;;;26.59;43.99
34658;BME280;20865;43.312;27.152;2023-06-14T22:35:31;100278.69;;;26.55;44.04
34658;BME280;20865;43.312;27.152;2023-06-14T22:37:59;100275.78;;;26.56;44.03
34658;BME280;20865;43.312;27.152;2023-06-14T22:40:27;100271.78;;;26.51;44.24
34658;BME280;20865;43.312;27.152;2023-06-14T22:42:56;100268.83;;;26.48;44.58
34658;BME280;20865;43.312;27.152;2023-06-14T22:45:26;100273.45;;;26.48;44.62
34658;BME280;20865;43.312;27.152;2023-06-14T22:47:55;100269.34;;;26.48;44.80
34658;BME280;20865;43.312;27.152;2023-06-14T22:50:24;100273.66;;;26.50;44.93
34658;BME280;20865;43.312;27.152;2023-06-14T22:52:52;100270.20;;;26.48;44.96
34658;BME280;20865;43.312;27.152;2023-06-14T22:55:19;100266.25;;;26.47;45.19
34658;BME280;20865;43.312;27.152;2023-06-14T22:57:47;100262.20;;;26.51;45.22
34658;BME280;20865;43.312;27.152;2023-06-14T23:00:15;100248.66;;;26.40;45.17
34658;BME280;20865;43.312;27.152;2023-06-14T23:02:44;100248.66;;;26.40;45.17
34658;BME280;20865;43.312;27.152;2023-06-14T23:05:12;100263.96;;;26.46;45.10
34658;BME280;20865;43.312;27.152;2023-06-14T23:07:40;100260.96;;;26.49;45.00
34658;BME280;20865;43.312;27.152;2023-06-14T23:10:09;100266.66;;;26.52;44.88
34658;BME280;20865;43.312;27.152;2023-06-14T23:12:37;100260.53;;;26.54;44.66
34658;BME280;20865;43.312;27.152;2023-06-14T23:15:07;100260.67;;;26.52;44.73
34658;BME280;20865;43.312;27.152;2023-06-14T23:17:35;100262.84;;;26.49;44.53
34658;BME280;20865;43.312;27.152;2023-06-14T23:20:06;100254.86;;;26.32;44.53
34658;BME280;20865;43.312;27.152;2023-06-14T23:22:35;100254.86;;;26.32;44.53
34658;BME280;20865;43.312;27.152;2023-06-14T23:25:04;100255.24;;;26.33;44.17
34658;BME280;20865;43.312;27.152;2023-06-14T23:27:33;100251.55;;;26.28;44.45
34658;BME280;20865;43.312;27.152;2023-06-14T23:30:04;100251.55;;;26.28;44.45
34658;BME280;20865;43.312;27.152;2023-06-14T23:32:32;100256.17;;;26.28;44.51
34658;BME280;20865;43.312;27.152;2023-06-14T23:35:01;100252.88;;;26.24;44.52
34658;BME280;20865;43.312;27.152;2023-06-14T23:37:29;100255.71;;;26.19;44.55
34658;BME280;20865;43.312;27.152;2023-06-14T23:39:59;100256.35;;;26.17;44.48
34658;BME280;20865;43.312;27.152;2023-06-14T23:42:27;100257.21;;;26.17;44.44
34658;BME280;20865;43.312;27.152;2023-06-14T23:44:58;100257.50;;;26.14;44.57
34658;BME280;20865;43.312;27.152;2023-06-14T23:47:29;100256.14;;;26.14;44.53
34658;BME280;20865;43.312;27.152;2023-06-14T23:49:58;100259.16;;;26.11;44.64
34658;BME280;20865;43.312;27.152;2023-06-14T23:52:31;100259.89;;;26.13;44.67
34658;BME280;20865;43.312;27.152;2023-06-14T23:54:55;100254.26;;;26.14;44.64
34658;BME280;20865;43.312;27.152;2023-06-14T23:57:23;100254.20;;;26.10;44.88
34658;BME280;20865;43.312;27.152;2023-06-14T23:59:51;100257.50;;;26.14;45.00
